createdAt,value
2023-01-12T00:02:07.655Z,2.65
2023-01-12T00:04:35.622Z,2.45
2023-01-12T00:07:08.024Z,3.17
2023-01-12T00:09:35.626Z,3.22
2023-01-12T00:12:10.661Z,2.15
2023-01-12T00:14:38.437Z,2.78
2023-01-12T00:17:06.490Z,2.47
2023-01-12T00:19:39.168Z,2.72
2023-01-12T00:22:13.925Z,2.90
2023-01-12T00:24:43.922Z,2.83
2023-01-12T00:27:16.375Z,2.58
2023-01-12T00:29:43.926Z,2.75
2023-01-12T00:32:14.306Z,2.15
2023-01-12T00:34:41.745Z,3.38
2023-01-12T00:37:14.030Z,3.17
2023-01-12T00:39:45.844Z,2.47
2023-01-12T00:42:37.476Z,4.20
2023-01-12T00:45:23.568Z,3.08
2023-01-12T00:47:53.949Z,3.25
2023-01-12T00:50:23.860Z,2.78
2023-01-12T00:52:51.571Z,2.45
2023-01-12T00:55:19.241Z,2.58
2023-01-12T00:57:49.374Z,2.30
2023-01-12T01:00:17.787Z,1.92
2023-01-12T01:02:48.954Z,2.95
2023-01-12T01:05:17.597Z,2.25
2023-01-12T01:07:47.959Z,2.08
2023-01-12T01:10:18.543Z,2.22
2023-01-12T01:12:46.018Z,2.95
2023-01-12T01:15:17.644Z,3.15
2023-01-12T01:17:48.220Z,1.90
2023-01-12T01:20:15.747Z,2.75
2023-01-12T01:22:44.513Z,2.72
2023-01-12T01:25:15.052Z,2.55
2023-01-12T01:27:45.162Z,1.90
2023-01-12T01:30:12.931Z,2.75
2023-01-12T01:32:42.032Z,2.75
2023-01-12T01:35:12.563Z,3.53
2023-01-12T01:37:43.645Z,2.40
2023-01-12T01:40:14.236Z,2.22
2023-01-12T01:42:43.768Z,2.45
2023-01-12T01:45:14.562Z,2.67
2023-01-12T01:47:52.786Z,2.15
2023-01-12T01:50:23.776Z,2.72
2023-01-12T01:52:52.461Z,2.42
2023-01-12T01:55:21.324Z,2.88
2023-01-12T01:57:51.766Z,2.50
2023-01-12T02:00:19.655Z,3.08
2023-01-12T02:02:49.496Z,3.17
2023-01-12T02:05:19.917Z,2.53
2023-01-12T02:07:48.763Z,2.30
2023-01-12T02:10:16.983Z,3.03
2023-01-12T02:13:03.449Z,3.47
2023-01-12T02:15:51.158Z,4.43
2023-01-12T02:20:58.543Z,2.45
2023-01-12T02:23:38.720Z,3.35
2023-01-12T02:26:43.745Z,2.65
2023-01-12T02:29:22.718Z,2.83
2023-01-12T02:31:58.744Z,2.50
2023-01-12T02:34:32.149Z,2.53
2023-01-12T02:37:06.273Z,3.00
2023-01-12T02:39:40.944Z,3.08
2023-01-12T02:42:30.489Z,2.50
2023-01-12T02:45:03.354Z,3.97
2023-01-12T02:47:40.745Z,3.45
2023-01-12T02:50:10.273Z,3.03
2023-01-12T02:52:40.657Z,3.33
2023-01-12T02:55:11.495Z,2.78
2023-01-12T02:57:44.618Z,3.42
2023-01-12T03:00:19.910Z,3.13
2023-01-12T03:02:50.554Z,2.95
2023-01-12T03:05:31.207Z,4.75
2023-01-12T03:08:07.445Z,3.05
2023-01-12T03:10:42.519Z,3.90
2023-01-12T03:13:17.747Z,2.75
2023-01-12T03:15:50.904Z,3.03
2023-01-12T03:18:24.000Z,3.15
2023-01-12T03:20:55.719Z,3.40
2023-01-12T03:23:30.228Z,4.47
2023-01-12T03:25:59.776Z,3.10
2023-01-12T03:28:32.113Z,4.22
2023-01-12T03:31:01.911Z,3.75
2023-01-12T03:33:33.695Z,3.03
2023-01-12T03:36:07.062Z,3.65
2023-01-12T03:38:44.548Z,3.17
2023-01-12T03:41:13.858Z,3.92
2023-01-12T03:43:43.516Z,3.80
2023-01-12T03:46:14.363Z,4.35
2023-01-12T03:48:45.564Z,3.38
2023-01-12T03:51:18.685Z,2.83
2023-01-12T03:53:52.553Z,3.63
2023-01-12T03:56:26.692Z,3.15
2023-01-12T03:59:04.534Z,3.47
2023-01-12T04:01:32.699Z,2.95
2023-01-12T04:04:01.922Z,2.55
2023-01-12T04:06:35.974Z,5.13
2023-01-12T04:09:03.859Z,2.45
2023-01-12T04:14:20.638Z,2.60
2023-01-12T04:16:50.549Z,3.20
2023-01-12T04:19:26.015Z,1.95
2023-01-12T04:22:14.189Z,3.13
2023-01-12T04:24:41.646Z,1.85
2023-01-12T04:27:09.993Z,2.90
2023-01-12T04:29:37.671Z,2.10
2023-01-12T04:32:05.488Z,3.40
2023-01-12T04:34:35.571Z,1.85
2023-01-12T04:37:07.887Z,2.33
2023-01-12T04:39:39.524Z,2.25
2023-01-12T04:42:32.762Z,2.67
2023-01-12T04:45:14.374Z,1.98
2023-01-12T04:47:42.163Z,2.10
2023-01-12T04:50:11.539Z,2.40
2023-01-12T04:52:40.975Z,2.50
2023-01-12T04:55:09.720Z,2.15
2023-01-12T04:57:37.453Z,2.72
2023-01-12T05:00:05.909Z,3.05
2023-01-12T05:02:37.894Z,1.88
2023-01-12T05:05:08.578Z,2.60
2023-01-12T05:07:37.484Z,1.80
2023-01-12T05:10:23.426Z,2.47
2023-01-12T05:12:55.028Z,2.13
2023-01-12T05:15:24.164Z,2.28
2023-01-12T05:17:55.885Z,1.55
2023-01-12T05:20:25.068Z,2.38
2023-01-12T05:22:55.224Z,2.80
2023-01-12T05:25:22.746Z,1.95
2023-01-12T05:27:57.619Z,1.65
2023-01-12T05:30:26.896Z,2.33
2023-01-12T05:32:55.191Z,3.33
2023-01-12T05:35:22.683Z,1.58
2023-01-12T05:37:50.400Z,1.70
2023-01-12T05:40:19.153Z,2.03
2023-01-12T05:43:09.027Z,1.40
2023-01-12T05:45:36.784Z,1.60
2023-01-12T05:48:07.132Z,3.38
2023-01-12T05:50:35.925Z,1.52
2023-01-12T05:53:12.325Z,1.50
2023-01-12T05:55:45.528Z,1.30
2023-01-12T05:58:12.909Z,1.35
2023-01-12T06:00:42.736Z,1.33
2023-01-12T06:03:10.555Z,1.45
2023-01-12T06:05:37.916Z,1.23
2023-01-12T06:08:07.918Z,1.38
2023-01-12T06:10:36.942Z,1.23
2023-01-12T06:13:19.835Z,1.05
2023-01-12T06:15:49.882Z,0.90
2023-01-12T06:18:19.902Z,1.23
2023-01-12T06:20:49.661Z,0.80
2023-01-12T06:23:17.201Z,1.20
2023-01-12T06:25:45.786Z,0.80
2023-01-12T06:28:16.350Z,1.20
2023-01-12T06:30:45.754Z,1.15
2023-01-12T06:33:18.092Z,1.08
2023-01-12T06:35:48.713Z,1.20
2023-01-12T06:38:18.856Z,2.58
2023-01-12T06:40:49.891Z,1.73
2023-01-12T06:43:20.042Z,1.60
2023-01-12T06:45:52.470Z,1.08
2023-01-12T06:48:24.908Z,2.38
2023-01-12T06:50:52.735Z,1.13
2023-01-12T06:53:23.075Z,0.75
2023-01-12T06:55:53.626Z,1.00
2023-01-12T06:58:22.683Z,1.13
2023-01-12T07:00:53.916Z,1.05
2023-01-12T07:03:22.841Z,1.65
2023-01-12T07:05:50.226Z,1.13
2023-01-12T07:08:19.186Z,1.15
2023-01-12T07:10:46.882Z,1.23
2023-01-12T07:13:14.408Z,1.27
2023-01-12T07:15:43.374Z,1.48
2023-01-12T07:18:10.881Z,1.00
2023-01-12T07:20:41.065Z,0.98
2023-01-12T07:23:08.894Z,1.10
2023-01-12T07:25:38.080Z,1.23
2023-01-12T07:28:07.918Z,1.30
2023-01-12T07:30:35.428Z,1.10
2023-01-12T07:33:10.151Z,1.48
2023-01-12T07:35:43.639Z,1.00
2023-01-12T07:38:11.318Z,1.17
2023-01-12T07:40:47.788Z,1.30
2023-01-12T07:43:19.784Z,1.48
2023-01-12T07:45:47.750Z,1.20
2023-01-12T07:50:48.331Z,1.83
2023-01-12T07:53:20.537Z,0.70
2023-01-12T07:55:53.197Z,1.85
2023-01-12T07:58:21.094Z,2.17
2023-01-12T08:03:17.870Z,1.60
2023-01-12T08:05:47.990Z,1.20
2023-01-12T08:08:18.868Z,2.03
2023-01-12T08:10:50.181Z,1.80
2023-01-12T08:13:22.787Z,2.08
2023-01-12T08:15:54.707Z,1.50
2023-01-12T08:18:24.295Z,1.77
2023-01-12T08:20:52.697Z,1.33
2023-01-12T08:23:23.643Z,1.38
2023-01-12T08:25:56.432Z,1.33
2023-01-12T08:28:26.088Z,1.73
2023-01-12T08:30:53.798Z,1.40
2023-01-12T08:33:23.503Z,1.33
2023-01-12T08:35:51.179Z,1.45
2023-01-12T08:38:19.286Z,1.30
2023-01-12T08:41:08.449Z,1.30
2023-01-12T08:43:53.600Z,1.60
2023-01-12T08:46:21.073Z,1.17
2023-01-12T08:48:48.572Z,1.27
2023-01-12T08:51:16.151Z,1.48
2023-01-12T08:53:43.738Z,1.90
2023-01-12T08:56:15.170Z,1.58
2023-01-12T08:58:42.938Z,1.50
2023-01-12T09:01:14.180Z,1.95
2023-01-12T09:03:45.634Z,1.10
2023-01-12T09:06:14.159Z,0.85
2023-01-12T09:08:42.145Z,1.25
2023-01-12T09:13:38.395Z,2.35
2023-01-12T09:16:12.664Z,1.00
2023-01-12T09:18:42.969Z,0.93
2023-01-12T09:21:11.040Z,1.55
2023-01-12T09:23:38.628Z,0.90
2023-01-12T09:26:06.840Z,1.20
2023-01-12T09:28:36.413Z,1.02
2023-01-12T09:31:07.943Z,1.00
2023-01-12T09:33:35.782Z,2.53
2023-01-12T09:36:04.599Z,1.17
2023-01-12T09:38:32.086Z,1.10
2023-01-12T09:41:02.683Z,1.15
2023-01-12T09:43:50.159Z,0.90
2023-01-12T09:46:41.805Z,1.00
2023-01-12T09:49:09.214Z,0.65
2023-01-12T09:51:42.232Z,1.20
2023-01-12T09:54:15.620Z,1.23
2023-01-12T09:56:52.305Z,1.02
2023-01-12T09:59:26.677Z,0.98
2023-01-12T10:01:57.075Z,1.02
2023-01-12T10:04:25.050Z,0.85
2023-01-12T10:06:52.439Z,0.93
2023-01-12T10:09:20.616Z,1.23
2023-01-12T10:11:57.569Z,0.70
2023-01-12T10:14:46.340Z,0.90
2023-01-12T10:17:41.841Z,0.82
2023-01-12T10:20:23.120Z,1.15
2023-01-12T10:22:53.682Z,0.70
2023-01-12T10:25:25.794Z,1.13
2023-01-12T10:27:56.886Z,0.93
2023-01-12T10:30:29.043Z,0.70
2023-01-12T10:32:56.604Z,0.98
2023-01-12T10:35:26.341Z,1.02
2023-01-12T10:37:54.960Z,1.25
2023-01-12T10:40:23.828Z,1.20
2023-01-12T10:43:22.047Z,0.82
2023-01-12T10:46:03.550Z,0.80
2023-01-12T10:48:31.214Z,1.42
2023-01-12T10:51:06.865Z,1.13
2023-01-12T10:53:39.341Z,1.27
2023-01-12T10:56:17.293Z,0.77
2023-01-12T10:58:45.847Z,1.00
2023-01-12T11:01:14.776Z,1.35
2023-01-12T11:03:42.244Z,0.80
2023-01-12T11:06:32.965Z,0.80
2023-01-12T11:09:18.113Z,0.57
2023-01-12T11:11:46.951Z,0.90
2023-01-12T11:14:24.310Z,0.60
2023-01-12T11:16:53.382Z,0.95
2023-01-12T11:19:22.709Z,2.63
2023-01-12T11:21:53.748Z,0.93
2023-01-12T11:24:28.697Z,2.28
2023-01-12T11:26:59.184Z,0.88
2023-01-12T11:29:36.629Z,1.48
2023-01-12T11:32:14.368Z,1.15
2023-01-12T11:37:14.499Z,0.93
2023-01-12T11:39:43.360Z,1.10
2023-01-12T11:42:31.421Z,0.60
2023-01-12T11:45:03.743Z,0.82
2023-01-12T11:47:35.659Z,0.80
2023-01-12T11:50:04.751Z,1.38
2023-01-12T11:52:32.816Z,1.08
2023-01-12T11:57:36.537Z,1.33
2023-01-12T12:00:12.845Z,0.65
2023-01-12T12:02:42.124Z,1.15
2023-01-12T12:05:17.718Z,0.75
2023-01-12T12:07:56.507Z,1.48
2023-01-12T12:10:28.637Z,0.80
2023-01-12T12:13:13.645Z,1.20
2023-01-12T12:15:46.080Z,1.40
2023-01-12T12:18:18.216Z,1.25
2023-01-12T12:20:52.047Z,1.08
2023-01-12T12:23:24.613Z,0.75
2023-01-12T12:25:58.558Z,1.20
2023-01-12T12:28:39.477Z,1.33
2023-01-12T12:31:16.586Z,1.20
2023-01-12T12:33:50.505Z,1.20
2023-01-12T12:36:24.117Z,1.30
2023-01-12T12:39:11.342Z,0.95
2023-01-12T12:41:58.477Z,1.02
2023-01-12T12:44:50.512Z,0.95
2023-01-12T12:47:34.199Z,1.20
2023-01-12T12:50:02.876Z,1.02
2023-01-12T12:52:31.632Z,0.82
2023-01-12T12:55:05.478Z,0.68
2023-01-12T12:57:53.917Z,0.95
2023-01-12T13:00:30.870Z,1.45
2023-01-12T13:02:59.989Z,0.90
2023-01-12T13:05:41.027Z,1.15
2023-01-12T13:08:17.337Z,1.08
2023-01-12T13:10:49.568Z,1.30
2023-01-12T13:13:28.208Z,1.13
2023-01-12T13:16:14.177Z,1.40
2023-01-12T13:18:44.059Z,1.38
2023-01-12T13:21:32.313Z,0.82
2023-01-12T13:24:21.990Z,1.30
2023-01-12T13:26:52.410Z,1.08
2023-01-12T13:29:49.756Z,0.80
2023-01-12T13:32:32.174Z,0.93
2023-01-12T13:35:00.886Z,1.00
2023-01-12T13:37:31.462Z,0.80
2023-01-12T13:40:02.064Z,1.00
2023-01-12T13:42:46.794Z,0.93
2023-01-12T13:45:17.363Z,0.60
2023-01-12T13:47:45.377Z,0.80
2023-01-12T13:52:41.356Z,0.70
2023-01-12T13:55:29.783Z,0.73
2023-01-12T13:57:57.738Z,0.70
2023-01-12T14:02:52.994Z,1.63
2023-01-12T14:05:28.360Z,0.90
2023-01-12T14:08:01.848Z,1.00
2023-01-12T14:10:36.890Z,1.02
2023-01-12T14:13:22.348Z,0.75
2023-01-12T14:16:07.124Z,0.85
2023-01-12T14:18:42.339Z,0.90
2023-01-12T14:21:21.022Z,0.60
2023-01-12T14:23:49.798Z,0.73
2023-01-12T14:26:22.769Z,0.80
2023-01-12T14:28:51.283Z,0.50
2023-01-12T14:31:21.266Z,0.88
2023-01-12T14:33:50.217Z,1.08
2023-01-12T14:36:18.579Z,0.70
2023-01-12T14:38:46.013Z,0.75
2023-01-12T14:41:33.041Z,0.55
2023-01-12T14:44:18.193Z,0.77
2023-01-12T14:46:47.805Z,0.85
2023-01-12T14:49:23.658Z,1.00
2023-01-12T14:51:55.125Z,1.38
2023-01-12T14:54:27.612Z,0.90
2023-01-12T14:56:59.496Z,0.70
2023-01-12T14:59:29.628Z,0.80
2023-01-12T15:02:18.720Z,0.70
2023-01-12T15:04:54.725Z,1.10
2023-01-12T15:07:22.870Z,1.20
2023-01-12T15:09:54.236Z,1.00
2023-01-12T15:12:42.669Z,0.85
2023-01-12T15:15:26.667Z,0.77
2023-01-12T15:18:12.343Z,1.00
2023-01-12T15:20:58.165Z,0.80
2023-01-12T15:23:45.784Z,0.95
2023-01-12T15:26:15.724Z,0.60
2023-01-12T15:28:44.752Z,1.00
2023-01-12T15:31:17.752Z,0.90
2023-01-12T15:33:45.576Z,0.93
2023-01-12T15:36:13.400Z,0.90
2023-01-12T15:41:10.142Z,0.93
2023-01-12T15:43:37.682Z,1.00
2023-01-12T15:46:06.484Z,0.90
2023-01-12T15:48:35.179Z,0.90
2023-01-12T15:51:02.534Z,0.93
2023-01-12T15:53:29.973Z,1.00
2023-01-12T15:55:57.372Z,1.25
2023-01-12T15:58:24.748Z,1.15
2023-01-12T16:00:56.002Z,0.60
2023-01-12T16:03:57.142Z,0.90
2023-01-12T16:06:12.206Z,1.15
2023-01-12T16:08:39.797Z,0.98
2023-01-12T16:11:16.027Z,1.10
2023-01-12T16:13:46.315Z,1.10
2023-01-12T16:16:15.798Z,1.10
2023-01-12T16:18:44.712Z,1.10
2023-01-12T16:21:15.168Z,1.88
2023-01-12T16:23:42.807Z,1.10
2023-01-12T16:26:10.719Z,1.10
2023-01-12T16:28:38.264Z,1.27
2023-01-12T16:31:06.854Z,1.10
2023-01-12T16:33:34.367Z,1.20
2023-01-12T16:36:06.601Z,1.00
2023-01-12T16:38:36.150Z,1.20
2023-01-12T16:41:08.205Z,1.30
2023-01-12T16:43:38.079Z,1.20
2023-01-12T16:46:05.929Z,1.00
2023-01-12T16:48:33.991Z,0.95
2023-01-12T16:53:29.962Z,0.88
2023-01-12T16:55:59.890Z,0.95
2023-01-12T16:58:27.263Z,0.80
2023-01-12T17:00:59.305Z,1.08
2023-01-12T17:03:27.036Z,1.25
2023-01-12T17:05:54.667Z,1.15
2023-01-12T17:08:22.180Z,1.05
2023-01-12T17:10:50.970Z,1.27
2023-01-12T17:13:25.001Z,1.00
2023-01-12T17:15:58.529Z,1.27
2023-01-12T17:18:28.981Z,1.30
2023-01-12T17:21:05.720Z,1.23
2023-01-12T17:23:33.392Z,1.40
2023-01-12T17:26:03.999Z,1.52
2023-01-12T17:28:31.478Z,0.95
2023-01-12T17:31:01.766Z,1.65
2023-01-12T17:33:29.338Z,1.80
2023-01-12T17:35:56.829Z,1.40
2023-01-12T17:38:24.234Z,2.22
2023-01-12T17:40:51.600Z,1.73
2023-01-12T17:43:19.780Z,1.55
2023-01-12T17:45:47.503Z,1.88
2023-01-12T17:48:18.077Z,1.30
2023-01-12T17:50:45.862Z,1.50
2023-01-12T17:53:13.371Z,1.20
2023-01-12T17:55:48.335Z,1.70
2023-01-12T17:58:18.345Z,1.00
2023-01-12T18:00:47.136Z,1.50
2023-01-12T18:03:22.492Z,1.55
2023-01-12T18:06:04.967Z,1.40
2023-01-12T18:08:37.297Z,1.20
2023-01-12T18:11:05.151Z,1.10
2023-01-12T18:16:01.466Z,1.10
2023-01-12T18:18:30.831Z,1.38
2023-01-12T18:21:03.668Z,1.50
2023-01-12T18:23:36.062Z,1.10
2023-01-12T18:26:03.825Z,1.58
2023-01-12T18:28:31.305Z,0.98
2023-01-12T18:31:04.278Z,1.23
2023-01-12T18:33:32.069Z,1.10
2023-01-12T18:35:59.424Z,1.77
2023-01-12T18:38:27.134Z,1.50
2023-01-12T18:41:08.559Z,1.42
2023-01-12T18:43:41.908Z,1.15
2023-01-12T18:46:16.753Z,1.83
2023-01-12T18:48:43.614Z,2.30
2023-01-12T18:51:32.100Z,1.10
2023-01-12T18:54:00.999Z,1.38
2023-01-12T18:56:31.456Z,1.65
2023-01-12T18:59:02.785Z,1.05
2023-01-12T19:01:33.949Z,1.30
2023-01-12T19:04:06.290Z,1.40
2023-01-12T19:06:43.341Z,1.40
2023-01-12T19:09:28.438Z,1.48
2023-01-12T19:11:55.800Z,1.85
2023-01-12T19:14:40.948Z,1.23
2023-01-12T19:17:30.430Z,1.20
2023-01-12T19:20:06.059Z,1.30
2023-01-12T19:22:51.567Z,1.45
2023-01-12T19:25:37.765Z,0.93
2023-01-12T19:28:23.388Z,1.42
2023-01-12T19:30:51.006Z,0.90
2023-01-12T19:33:20.408Z,1.27
2023-01-12T19:35:48.130Z,1.15
2023-01-12T19:38:15.638Z,1.50
2023-01-12T19:40:46.506Z,1.10
2023-01-12T19:43:25.958Z,1.15
2023-01-12T19:45:59.080Z,1.50
2023-01-12T19:48:29.175Z,1.15
2023-01-12T19:50:57.118Z,1.33
2023-01-12T19:55:53.644Z,1.30
2023-01-12T19:58:25.167Z,1.05
2023-01-12T20:00:58.705Z,1.08
2023-01-12T20:03:26.263Z,2.15
2023-01-12T20:05:54.961Z,1.10
2023-01-12T20:08:23.247Z,1.05
2023-01-12T20:10:53.383Z,2.20
2023-01-12T20:13:20.895Z,1.17
2023-01-12T20:15:50.149Z,1.27
2023-01-12T20:18:18.134Z,0.90
2023-01-12T20:23:17.656Z,1.33
2023-01-12T20:25:54.727Z,1.20
2023-01-12T20:28:22.072Z,0.82
2023-01-12T20:30:49.434Z,1.48
2023-01-12T20:33:17.109Z,0.80
2023-01-12T20:35:45.679Z,1.00
2023-01-12T20:38:16.268Z,1.08
2023-01-12T20:40:43.654Z,1.20
2023-01-12T20:43:11.306Z,1.27
2023-01-12T20:45:40.266Z,1.55
2023-01-12T20:48:07.613Z,0.70
2023-01-12T20:50:35.019Z,1.00
2023-01-12T20:53:02.465Z,1.27
2023-01-12T20:55:31.304Z,1.13
2023-01-12T20:57:58.787Z,1.58
2023-01-12T21:00:33.144Z,1.23
2023-01-12T21:03:00.639Z,1.33
2023-01-12T21:05:29.140Z,1.25
2023-01-12T21:08:07.172Z,1.10
2023-01-12T21:10:36.927Z,1.25
2023-01-12T21:13:04.369Z,1.25
2023-01-12T21:15:31.934Z,1.65
2023-01-12T21:18:07.553Z,1.45
2023-01-12T21:20:35.365Z,1.45
2023-01-12T21:23:02.747Z,1.08
2023-01-12T21:25:30.184Z,1.30
2023-01-12T21:27:58.912Z,1.40
2023-01-12T21:30:26.348Z,1.27
2023-01-12T21:32:55.011Z,0.88
2023-01-12T21:35:23.889Z,1.23
2023-01-12T21:37:52.003Z,1.33
2023-01-12T21:40:22.747Z,1.27
2023-01-12T21:43:07.961Z,0.88
2023-01-12T21:45:36.863Z,1.13
2023-01-12T21:48:04.460Z,1.45
2023-01-12T21:50:32.665Z,0.70
2023-01-12T21:53:00.680Z,1.00
2023-01-12T21:57:55.586Z,0.80
2023-01-12T22:00:23.370Z,1.00
2023-01-12T22:02:54.413Z,0.68
2023-01-12T22:05:22.198Z,0.63
2023-01-12T22:07:50.107Z,0.75
2023-01-12T22:12:47.664Z,0.70
2023-01-12T22:15:15.420Z,0.80
2023-01-12T22:17:45.826Z,0.60
2023-01-12T22:20:16.349Z,0.80
2023-01-12T22:22:46.970Z,0.82
2023-01-12T22:25:21.894Z,0.93
2023-01-12T22:27:49.306Z,1.23
2023-01-12T22:30:18.035Z,0.90
2023-01-12T22:32:45.414Z,1.20
2023-01-12T22:35:13.112Z,1.33
2023-01-12T22:37:42.025Z,1.40
2023-01-12T22:40:11.982Z,0.90
2023-01-12T22:42:57.418Z,0.80
2023-01-12T22:45:24.881Z,0.95
2023-01-12T22:47:53.386Z,0.95
2023-01-12T22:50:20.784Z,1.00
2023-01-12T22:52:52.436Z,1.20
2023-01-12T22:55:20.393Z,1.00
2023-01-12T23:00:19.150Z,1.05
2023-01-12T23:03:02.900Z,1.60
2023-01-12T23:05:33.015Z,0.70
2023-01-12T23:08:02.482Z,1.02
2023-01-12T23:10:30.400Z,0.70
2023-01-12T23:15:43.261Z,0.77
2023-01-12T23:18:11.289Z,0.70
2023-01-12T23:23:08.787Z,1.00
2023-01-12T23:25:36.545Z,0.95
2023-01-12T23:28:04.580Z,0.80
2023-01-12T23:30:32.516Z,1.05
2023-01-12T23:33:00.578Z,0.93
2023-01-12T23:35:28.492Z,1.23
2023-01-12T23:37:56.132Z,1.20
2023-01-12T23:40:25.089Z,0.82
2023-01-12T23:42:52.693Z,0.68
2023-01-12T23:45:20.294Z,0.32
2023-01-12T23:47:47.910Z,0.90
2023-01-12T23:50:15.576Z,0.70
2023-01-12T23:52:43.230Z,0.70
2023-01-12T23:55:10.925Z,0.50
2023-01-12T23:57:39.894Z,0.77
